sensor_id;sensor_type;location;lat;lon;timestamp;P1;durP1;ratioP1;P2;durP2;ratioP2
7289;SDS011;63176;52.678;13.250;2022-12-07T00:01:38;5.28;;;3.00;;
7289;SDS011;63176;52.678;13.250;2022-12-07T00:04:06;5.40;;;3.42;;
7289;SDS011;63176;52.678;13.250;2022-12-07T00:06:34;4.40;;;3.42;;
7289;SDS011;63176;52.678;13.250;2022-12-07T00:09:01;5.72;;;2.92;;
7289;SDS011;63176;52.678;13.250;2022-12-07T00:11:32;6.15;;;3.35;;
7289;SDS011;63176;52.678;13.250;2022-12-07T00:13:59;5.82;;;2.72;;
7289;SDS011;63176;52.678;13.250;2022-12-07T00:16:27;6.13;;;3.47;;
7289;SDS011;63176;52.678;13.250;2022-12-07T00:18:55;4.30;;;3.30;;
7289;SDS011;63176;52.678;13.250;2022-12-07T00:21:21;4.63;;;3.27;;
7289;SDS011;63176;52.678;13.250;2022-12-07T00:23:50;6.18;;;3.50;;
7289;SDS011;63176;52.678;13.250;2022-12-07T00:28:53;5.55;;;3.13;;
7289;SDS011;63176;52.678;13.250;2022-12-07T00:31:25;3.40;;;2.45;;
7289;SDS011;63176;52.678;13.250;2022-12-07T00:33:51;4.63;;;3.25;;
7289;SDS011;63176;52.678;13.250;2022-12-07T00:36:18;6.77;;;3.30;;
7289;SDS011;63176;52.678;13.250;2022-12-07T00:38:45;4.60;;;2.28;;
7289;SDS011;63176;52.678;13.250;2022-12-07T00:41:12;7.33;;;3.73;;
7289;SDS011;63176;52.678;13.250;2022-12-07T00:43:40;4.93;;;3.13;;
7289;SDS011;63176;52.678;13.250;2022-12-07T00:46:07;7.05;;;3.25;;
7289;SDS011;63176;52.678;13.250;2022-12-07T00:48:34;4.45;;;3.28;;
7289;SDS011;63176;52.678;13.250;2022-12-07T00:51:00;3.13;;;2.30;;
7289;SDS011;63176;52.678;13.250;2022-12-07T00:53:26;7.85;;;3.90;;
7289;SDS011;63176;52.678;13.250;2022-12-07T00:55:52;6.57;;;3.90;;
7289;SDS011;63176;52.678;13.250;2022-12-07T00:58:18;7.47;;;4.00;;
7289;SDS011;63176;52.678;13.250;2022-12-07T01:00:45;3.30;;;2.60;;
7289;SDS011;63176;52.678;13.250;2022-12-07T01:03:11;6.68;;;3.50;;
7289;SDS011;63176;52.678;13.250;2022-12-07T01:05:38;5.95;;;3.40;;
7289;SDS011;63176;52.678;13.250;2022-12-07T01:08:04;7.00;;;4.63;;
7289;SDS011;63176;52.678;13.250;2022-12-07T01:10:30;6.63;;;3.67;;
7289;SDS011;63176;52.678;13.250;2022-12-07T01:12:56;5.10;;;3.40;;
7289;SDS011;63176;52.678;13.250;2022-12-07T01:15:23;5.78;;;3.30;;
7289;SDS011;63176;52.678;13.250;2022-12-07T01:17:48;5.57;;;3.40;;
7289;SDS011;63176;52.678;13.250;2022-12-07T01:20:14;6.90;;;3.43;;
7289;SDS011;63176;52.678;13.250;2022-12-07T01:22:41;6.07;;;3.63;;
7289;SDS011;63176;52.678;13.250;2022-12-07T01:25:07;6.93;;;4.18;;
7289;SDS011;63176;52.678;13.250;2022-12-07T01:27:34;7.05;;;3.45;;
7289;SDS011;63176;52.678;13.250;2022-12-07T01:30:00;6.70;;;3.70;;
7289;SDS011;63176;52.678;13.250;2022-12-07T01:32:29;5.95;;;3.53;;
7289;SDS011;63176;52.678;13.250;2022-12-07T01:34:54;5.93;;;3.23;;
7289;SDS011;63176;52.678;13.250;2022-12-07T01:37:20;4.77;;;3.37;;
7289;SDS011;63176;52.678;13.250;2022-12-07T01:39:49;6.47;;;3.10;;
7289;SDS011;63176;52.678;13.250;2022-12-07T01:42:16;6.68;;;3.53;;
7289;SDS011;63176;52.678;13.250;2022-12-07T01:47:43;5.57;;;3.22;;
7289;SDS011;63176;52.678;13.250;2022-12-07T01:50:12;4.70;;;2.90;;
7289;SDS011;63176;52.678;13.250;2022-12-07T01:52:38;6.65;;;3.60;;
7289;SDS011;63176;52.678;13.250;2022-12-07T01:55:06;3.75;;;2.45;;
7289;SDS011;63176;52.678;13.250;2022-12-07T01:57:34;4.45;;;2.63;;
7289;SDS011;63176;52.678;13.250;2022-12-07T02:00:05;4.28;;;3.15;;
7289;SDS011;63176;52.678;13.250;2022-12-07T02:02:41;4.32;;;2.85;;
7289;SDS011;63176;52.678;13.250;2022-12-07T02:05:15;5.78;;;3.45;;
7289;SDS011;63176;52.678;13.250;2022-12-07T02:07:42;4.57;;;2.88;;
7289;SDS011;63176;52.678;13.250;2022-12-07T02:10:14;5.43;;;3.28;;
7289;SDS011;63176;52.678;13.250;2022-12-07T02:12:42;5.30;;;3.08;;
7289;SDS011;63176;52.678;13.250;2022-12-07T02:15:11;5.43;;;2.75;;
7289;SDS011;63176;52.678;13.250;2022-12-07T02:17:51;5.80;;;3.77;;
7289;SDS011;63176;52.678;13.250;2022-12-07T02:20:37;3.97;;;2.50;;
7289;SDS011;63176;52.678;13.250;2022-12-07T02:28:33;2.90;;;2.28;;
7289;SDS011;63176;52.678;13.250;2022-12-07T02:31:12;4.95;;;3.22;;
7289;SDS011;63176;52.678;13.250;2022-12-07T02:33:50;4.50;;;2.60;;
7289;SDS011;63176;52.678;13.250;2022-12-07T02:36:29;4.30;;;2.60;;
7289;SDS011;63176;52.678;13.250;2022-12-07T02:39:03;3.58;;;2.40;;
7289;SDS011;63176;52.678;13.250;2022-12-07T02:41:37;4.13;;;3.00;;
7289;SDS011;63176;52.678;13.250;2022-12-07T02:44:10;2.15;;;1.95;;
7289;SDS011;63176;52.678;13.250;2022-12-07T02:46:47;4.25;;;2.60;;
7289;SDS011;63176;52.678;13.250;2022-12-07T02:49:17;3.30;;;2.60;;
7289;SDS011;63176;52.678;13.250;2022-12-07T02:51:46;3.25;;;2.47;;
7289;SDS011;63176;52.678;13.250;2022-12-07T02:54:16;3.70;;;2.10;;
7289;SDS011;63176;52.678;13.250;2022-12-07T02:56:46;3.38;;;2.20;;
7289;SDS011;63176;52.678;13.250;2022-12-07T03:02:25;5.15;;;2.92;;
7289;SDS011;63176;52.678;13.250;2022-12-07T03:05:13;3.15;;;2.40;;
7289;SDS011;63176;52.678;13.250;2022-12-07T03:16:16;4.88;;;2.78;;
7289;SDS011;63176;52.678;13.250;2022-12-07T03:18:46;3.95;;;2.72;;
7289;SDS011;63176;52.678;13.250;2022-12-07T03:21:33;5.20;;;2.67;;
7289;SDS011;63176;52.678;13.250;2022-12-07T03:24:15;7.45;;;2.95;;
7289;SDS011;63176;52.678;13.250;2022-12-07T03:26:46;5.57;;;3.13;;
7289;SDS011;63176;52.678;13.250;2022-12-07T03:29:21;5.18;;;2.15;;
7289;SDS011;63176;52.678;13.250;2022-12-07T03:32:11;5.05;;;3.00;;
7289;SDS011;63176;52.678;13.250;2022-12-07T03:34:49;7.90;;;4.00;;
7289;SDS011;63176;52.678;13.250;2022-12-07T03:42:31;4.65;;;2.63;;
7289;SDS011;63176;52.678;13.250;2022-12-07T03:44:59;7.57;;;4.05;;
7289;SDS011;63176;52.678;13.250;2022-12-07T03:47:27;6.38;;;3.35;;
7289;SDS011;63176;52.678;13.250;2022-12-07T03:50:52;5.32;;;3.55;;
7289;SDS011;63176;52.678;13.250;2022-12-07T03:53:03;7.78;;;4.18;;
7289;SDS011;63176;52.678;13.250;2022-12-07T03:55:37;5.60;;;3.38;;
7289;SDS011;63176;52.678;13.250;2022-12-07T03:58:07;6.35;;;3.88;;
7289;SDS011;63176;52.678;13.250;2022-12-07T04:00:36;5.78;;;3.92;;
7289;SDS011;63176;52.678;13.250;2022-12-07T04:03:02;12.27;;;4.82;;
7289;SDS011;63176;52.678;13.250;2022-12-07T04:05:27;6.80;;;3.87;;
7289;SDS011;63176;52.678;13.250;2022-12-07T04:07:53;8.07;;;4.93;;
7289;SDS011;63176;52.678;13.250;2022-12-07T04:10:19;8.53;;;4.10;;
7289;SDS011;63176;52.678;13.250;2022-12-07T04:12:45;12.02;;;4.97;;
7289;SDS011;63176;52.678;13.250;2022-12-07T04:15:11;10.33;;;5.17;;
7289;SDS011;63176;52.678;13.250;2022-12-07T04:17:37;8.47;;;4.50;;
7289;SDS011;63176;52.678;13.250;2022-12-07T04:20:03;10.80;;;4.07;;
7289;SDS011;63176;52.678;13.250;2022-12-07T04:22:30;8.20;;;3.97;;
7289;SDS011;63176;52.678;13.250;2022-12-07T04:24:55;12.47;;;4.77;;
7289;SDS011;63176;52.678;13.250;2022-12-07T04:27:21;7.30;;;4.80;;
7289;SDS011;63176;52.678;13.250;2022-12-07T04:29:46;11.13;;;5.70;;
7289;SDS011;63176;52.678;13.250;2022-12-07T04:32:12;11.60;;;5.53;;
7289;SDS011;63176;52.678;13.250;2022-12-07T04:34:38;11.93;;;6.20;;
7289;SDS011;63176;52.678;13.250;2022-12-07T04:37:03;11.20;;;5.90;;
7289;SDS011;63176;52.678;13.250;2022-12-07T04:39:30;11.17;;;5.90;;
7289;SDS011;63176;52.678;13.250;2022-12-07T04:41:57;10.38;;;5.03;;
7289;SDS011;63176;52.678;13.250;2022-12-07T04:44:24;11.43;;;5.80;;
7289;SDS011;63176;52.678;13.250;2022-12-07T04:46:51;9.65;;;5.20;;
7289;SDS011;63176;52.678;13.250;2022-12-07T04:49:17;11.07;;;5.50;;
7289;SDS011;63176;52.678;13.250;2022-12-07T04:51:44;9.48;;;5.50;;
7289;SDS011;63176;52.678;13.250;2022-12-07T04:54:11;11.55;;;5.88;;
7289;SDS011;63176;52.678;13.250;2022-12-07T04:56:37;10.27;;;5.20;;
7289;SDS011;63176;52.678;13.250;2022-12-07T04:59:03;12.10;;;7.03;;
7289;SDS011;63176;52.678;13.250;2022-12-07T05:01:29;11.30;;;6.28;;
7289;SDS011;63176;52.678;13.250;2022-12-07T05:03:55;15.00;;;6.93;;
7289;SDS011;63176;52.678;13.250;2022-12-07T05:06:21;12.10;;;6.63;;
7289;SDS011;63176;52.678;13.250;2022-12-07T05:08:47;13.68;;;6.60;;
7289;SDS011;63176;52.678;13.250;2022-12-07T05:11:13;13.77;;;5.90;;
7289;SDS011;63176;52.678;13.250;2022-12-07T05:13:57;16.23;;;7.57;;
7289;SDS011;63176;52.678;13.250;2022-12-07T05:16:23;14.83;;;6.60;;
7289;SDS011;63176;52.678;13.250;2022-12-07T05:18:49;12.43;;;6.00;;
7289;SDS011;63176;52.678;13.250;2022-12-07T05:21:15;12.63;;;6.73;;
7289;SDS011;63176;52.678;13.250;2022-12-07T05:23:40;15.50;;;6.80;;
7289;SDS011;63176;52.678;13.250;2022-12-07T05:26:06;14.17;;;7.00;;
7289;SDS011;63176;52.678;13.250;2022-12-07T05:28:31;18.63;;;6.97;;
7289;SDS011;63176;52.678;13.250;2022-12-07T05:30:57;12.67;;;5.83;;
7289;SDS011;63176;52.678;13.250;2022-12-07T05:33:22;18.93;;;7.80;;
7289;SDS011;63176;52.678;13.250;2022-12-07T05:35:48;13.87;;;6.50;;
7289;SDS011;63176;52.678;13.250;2022-12-07T05:38:14;16.03;;;6.90;;
7289;SDS011;63176;52.678;13.250;2022-12-07T05:40:39;11.87;;;6.50;;
7289;SDS011;63176;52.678;13.250;2022-12-07T05:43:05;15.67;;;7.00;;
7289;SDS011;63176;52.678;13.250;2022-12-07T05:45:31;12.77;;;7.13;;
7289;SDS011;63176;52.678;13.250;2022-12-07T05:47:56;14.70;;;6.07;;
7289;SDS011;63176;52.678;13.250;2022-12-07T05:50:22;16.10;;;7.23;;
7289;SDS011;63176;52.678;13.250;2022-12-07T05:52:47;9.70;;;5.80;;
7289;SDS011;63176;52.678;13.250;2022-12-07T05:55:13;14.40;;;6.50;;
7289;SDS011;63176;52.678;13.250;2022-12-07T05:57:39;14.73;;;6.97;;
7289;SDS011;63176;52.678;13.250;2022-12-07T06:00:04;10.97;;;6.53;;
7289;SDS011;63176;52.678;13.250;2022-12-07T06:02:30;13.63;;;6.57;;
7289;SDS011;63176;52.678;13.250;2022-12-07T06:04:56;14.20;;;7.90;;
7289;SDS011;63176;52.678;13.250;2022-12-07T06:07:22;12.97;;;6.13;;
7289;SDS011;63176;52.678;13.250;2022-12-07T06:09:47;11.80;;;6.60;;
7289;SDS011;63176;52.678;13.250;2022-12-07T06:12:13;9.50;;;6.00;;
7289;SDS011;63176;52.678;13.250;2022-12-07T06:14:57;11.50;;;6.20;;
7289;SDS011;63176;52.678;13.250;2022-12-07T06:17:23;11.53;;;6.00;;
7289;SDS011;63176;52.678;13.250;2022-12-07T06:19:49;11.80;;;6.87;;
7289;SDS011;63176;52.678;13.250;2022-12-07T06:22:14;10.77;;;5.90;;
7289;SDS011;63176;52.678;13.250;2022-12-07T06:24:41;10.65;;;5.40;;
7289;SDS011;63176;52.678;13.250;2022-12-07T06:27:07;11.73;;;5.45;;
7289;SDS011;63176;52.678;13.250;2022-12-07T06:29:33;10.18;;;4.88;;
7289;SDS011;63176;52.678;13.250;2022-12-07T06:31:59;10.97;;;4.20;;
7289;SDS011;63176;52.678;13.250;2022-12-07T06:34:25;9.80;;;5.20;;
7289;SDS011;63176;52.678;13.250;2022-12-07T06:36:52;10.65;;;5.10;;
7289;SDS011;63176;52.678;13.250;2022-12-07T06:39:21;10.00;;;5.85;;
7289;SDS011;63176;52.678;13.250;2022-12-07T06:41:48;9.70;;;5.47;;
7289;SDS011;63176;52.678;13.250;2022-12-07T06:44:14;12.87;;;5.67;;
7289;SDS011;63176;52.678;13.250;2022-12-07T06:46:40;12.23;;;5.73;;
7289;SDS011;63176;52.678;13.250;2022-12-07T06:49:05;7.40;;;4.43;;
7289;SDS011;63176;52.678;13.250;2022-12-07T06:51:32;11.75;;;6.10;;
7289;SDS011;63176;52.678;13.250;2022-12-07T06:54:00;9.10;;;4.63;;
7289;SDS011;63176;52.678;13.250;2022-12-07T06:56:25;8.00;;;4.87;;
7289;SDS011;63176;52.678;13.250;2022-12-07T06:58:51;8.30;;;4.70;;
7289;SDS011;63176;52.678;13.250;2022-12-07T07:01:17;7.00;;;4.40;;
7289;SDS011;63176;52.678;13.250;2022-12-07T07:03:43;10.60;;;4.95;;
7289;SDS011;63176;52.678;13.250;2022-12-07T07:06:10;10.55;;;4.85;;
7289;SDS011;63176;52.678;13.250;2022-12-07T07:08:36;11.33;;;4.87;;
7289;SDS011;63176;52.678;13.250;2022-12-07T07:11:02;8.57;;;5.15;;
7289;SDS011;63176;52.678;13.250;2022-12-07T07:13:28;10.25;;;5.53;;
7289;SDS011;63176;52.678;13.250;2022-12-07T07:15:54;7.80;;;4.97;;
7289;SDS011;63176;52.678;13.250;2022-12-07T07:18:20;10.73;;;5.73;;
7289;SDS011;63176;52.678;13.250;2022-12-07T07:20:46;11.27;;;4.90;;
7289;SDS011;63176;52.678;13.250;2022-12-07T07:23:12;7.67;;;4.10;;
7289;SDS011;63176;52.678;13.250;2022-12-07T07:25:38;12.50;;;5.00;;
7289;SDS011;63176;52.678;13.250;2022-12-07T07:28:03;9.93;;;4.23;;
7289;SDS011;63176;52.678;13.250;2022-12-07T07:30:30;7.45;;;4.55;;
7289;SDS011;63176;52.678;13.250;2022-12-07T07:33:00;8.97;;;4.87;;
7289;SDS011;63176;52.678;13.250;2022-12-07T07:35:27;19.02;;;4.50;;
7289;SDS011;63176;52.678;13.250;2022-12-07T07:37:54;5.55;;;3.08;;
7289;SDS011;63176;52.678;13.250;2022-12-07T07:40:20;6.80;;;2.97;;
7289;SDS011;63176;52.678;13.250;2022-12-07T07:42:47;5.20;;;3.10;;
7289;SDS011;63176;52.678;13.250;2022-12-07T07:45:13;5.45;;;2.90;;
7289;SDS011;63176;52.678;13.250;2022-12-07T07:47:39;7.23;;;3.90;;
7289;SDS011;63176;52.678;13.250;2022-12-07T07:50:05;5.07;;;3.10;;
7289;SDS011;63176;52.678;13.250;2022-12-07T07:52:31;5.53;;;2.90;;
7289;SDS011;63176;52.678;13.250;2022-12-07T07:54:57;3.63;;;2.30;;
7289;SDS011;63176;52.678;13.250;2022-12-07T07:57:22;4.47;;;2.70;;
7289;SDS011;63176;52.678;13.250;2022-12-07T07:59:48;3.40;;;2.47;;
7289;SDS011;63176;52.678;13.250;2022-12-07T08:02:15;4.17;;;2.80;;
7289;SDS011;63176;52.678;13.250;2022-12-07T08:04:42;6.32;;;2.75;;
7289;SDS011;63176;52.678;13.250;2022-12-07T08:07:08;4.57;;;2.30;;
7289;SDS011;63176;52.678;13.250;2022-12-07T08:09:34;2.80;;;2.20;;
7289;SDS011;63176;52.678;13.250;2022-12-07T08:11:59;2.23;;;1.43;;
7289;SDS011;63176;52.678;13.250;2022-12-07T08:14:25;3.75;;;2.45;;
7289;SDS011;63176;52.678;13.250;2022-12-07T08:16:52;2.60;;;1.35;;
7289;SDS011;63176;52.678;13.250;2022-12-07T08:19:18;3.73;;;2.83;;
7289;SDS011;63176;52.678;13.250;2022-12-07T08:21:44;3.20;;;2.30;;
7289;SDS011;63176;52.678;13.250;2022-12-07T08:24:09;2.97;;;2.20;;
7289;SDS011;63176;52.678;13.250;2022-12-07T08:26:35;2.87;;;1.87;;
7289;SDS011;63176;52.678;13.250;2022-12-07T08:29:00;3.53;;;2.20;;
7289;SDS011;63176;52.678;13.250;2022-12-07T08:31:26;2.47;;;2.20;;
7289;SDS011;63176;52.678;13.250;2022-12-07T08:33:53;2.53;;;1.95;;
7289;SDS011;63176;52.678;13.250;2022-12-07T08:36:18;2.50;;;2.00;;
7289;SDS011;63176;52.678;13.250;2022-12-07T08:38:44;4.53;;;2.07;;
7289;SDS011;63176;52.678;13.250;2022-12-07T08:41:10;2.87;;;1.73;;
7289;SDS011;63176;52.678;13.250;2022-12-07T08:43:36;1.70;;;1.60;;
7289;SDS011;63176;52.678;13.250;2022-12-07T08:48:46;2.38;;;1.90;;
7289;SDS011;63176;52.678;13.250;2022-12-07T08:51:14;1.90;;;1.50;;
7289;SDS011;63176;52.678;13.250;2022-12-07T08:53:39;1.90;;;1.77;;
7289;SDS011;63176;52.678;13.250;2022-12-07T08:56:06;1.73;;;1.63;;
7289;SDS011;63176;52.678;13.250;2022-12-07T08:58:33;2.55;;;1.80;;
7289;SDS011;63176;52.678;13.250;2022-12-07T09:01:00;1.58;;;1.42;;
7289;SDS011;63176;52.678;13.250;2022-12-07T09:03:26;2.03;;;1.20;;
7289;SDS011;63176;52.678;13.250;2022-12-07T09:05:52;2.20;;;1.70;;
7289;SDS011;63176;52.678;13.250;2022-12-07T09:08:18;2.00;;;1.80;;
7289;SDS011;63176;52.678;13.250;2022-12-07T09:10:44;1.30;;;1.20;;
7289;SDS011;63176;52.678;13.250;2022-12-07T09:13:11;2.22;;;1.65;;
7289;SDS011;63176;52.678;13.250;2022-12-07T09:15:36;1.50;;;1.40;;
7289;SDS011;63176;52.678;13.250;2022-12-07T09:18:02;1.37;;;1.27;;
7289;SDS011;63176;52.678;13.250;2022-12-07T09:20:28;1.57;;;1.10;;
7289;SDS011;63176;52.678;13.250;2022-12-07T09:22:53;2.10;;;1.07;;
7289;SDS011;63176;52.678;13.250;2022-12-07T09:25:19;3.37;;;1.67;;
7289;SDS011;63176;52.678;13.250;2022-12-07T09:27:45;0.80;;;0.80;;
7289;SDS011;63176;52.678;13.250;2022-12-07T09:30:10;0.87;;;0.73;;
7289;SDS011;63176;52.678;13.250;2022-12-07T09:32:36;1.53;;;1.10;;
7289;SDS011;63176;52.678;13.250;2022-12-07T09:35:02;2.87;;;1.00;;
7289;SDS011;63176;52.678;13.250;2022-12-07T09:37:27;1.00;;;0.90;;
7289;SDS011;63176;52.678;13.250;2022-12-07T09:39:53;1.10;;;1.00;;
7289;SDS011;63176;52.678;13.250;2022-12-07T09:42:35;1.33;;;1.13;;
7289;SDS011;63176;52.678;13.250;2022-12-07T09:45:04;1.27;;;1.05;;
7289;SDS011;63176;52.678;13.250;2022-12-07T09:47:32;3.40;;;1.00;;
7289;SDS011;63176;52.678;13.250;2022-12-07T09:50:12;1.35;;;1.25;;
7289;SDS011;63176;52.678;13.250;2022-12-07T09:52:40;1.23;;;0.73;;
7289;SDS011;63176;52.678;13.250;2022-12-07T09:55:09;1.27;;;1.10;;
7289;SDS011;63176;52.678;13.250;2022-12-07T09:57:39;1.00;;;0.90;;
7289;SDS011;63176;52.678;13.250;2022-12-07T10:00:10;1.42;;;1.05;;
7289;SDS011;63176;52.678;13.250;2022-12-07T10:02:40;0.93;;;0.80;;
7289;SDS011;63176;52.678;13.250;2022-12-07T10:05:13;1.52;;;1.00;;
7289;SDS011;63176;52.678;13.250;2022-12-07T10:07:41;1.17;;;1.08;;
7289;SDS011;63176;52.678;13.250;2022-12-07T10:10:14;1.77;;;1.10;;
7289;SDS011;63176;52.678;13.250;2022-12-07T10:18:17;0.90;;;0.70;;
7289;SDS011;63176;52.678;13.250;2022-12-07T10:20:43;0.80;;;0.77;;
7289;SDS011;63176;52.678;13.250;2022-12-07T10:23:15;1.42;;;1.02;;
7289;SDS011;63176;52.678;13.250;2022-12-07T10:25:42;2.55;;;0.80;;
7289;SDS011;63176;52.678;13.250;2022-12-07T10:28:13;0.80;;;0.70;;
7289;SDS011;63176;52.678;13.250;2022-12-07T10:33:34;1.20;;;1.10;;
7289;SDS011;63176;52.678;13.250;2022-12-07T10:38:48;1.85;;;1.10;;
7289;SDS011;63176;52.678;13.250;2022-12-07T10:41:15;1.00;;;0.90;;
7289;SDS011;63176;52.678;13.250;2022-12-07T10:43:49;3.47;;;1.20;;
7289;SDS011;63176;52.678;13.250;2022-12-07T11:02:00;1.13;;;1.00;;
7289;SDS011;63176;52.678;13.250;2022-12-07T11:04:59;0.95;;;0.90;;
7289;SDS011;63176;52.678;13.250;2022-12-07T11:13:10;1.63;;;1.33;;
7289;SDS011;63176;52.678;13.250;2022-12-07T11:16:03;2.30;;;1.38;;
7289;SDS011;63176;52.678;13.250;2022-12-07T11:24:17;1.70;;;1.60;;
7289;SDS011;63176;52.678;13.250;2022-12-07T11:29:39;2.35;;;1.60;;
7289;SDS011;63176;52.678;13.250;2022-12-07T11:32:26;7.95;;;2.13;;
7289;SDS011;63176;52.678;13.250;2022-12-07T11:37:48;1.48;;;1.38;;
7289;SDS011;63176;52.678;13.250;2022-12-07T11:40:21;4.18;;;1.83;;
7289;SDS011;63176;52.678;13.250;2022-12-07T11:46:06;1.67;;;1.58;;
7289;SDS011;63176;52.678;13.250;2022-12-07T11:48:41;1.67;;;1.30;;
7289;SDS011;63176;52.678;13.250;2022-12-07T11:51:11;4.82;;;1.50;;
7289;SDS011;63176;52.678;13.250;2022-12-07T11:56:07;1.57;;;1.10;;
7289;SDS011;63176;52.678;13.250;2022-12-07T12:06:40;3.53;;;1.35;;
7289;SDS011;63176;52.678;13.250;2022-12-07T12:25:57;4.43;;;1.90;;
7289;SDS011;63176;52.678;13.250;2022-12-07T12:28:34;2.20;;;2.00;;
7289;SDS011;63176;52.678;13.250;2022-12-07T12:31:37;3.60;;;2.47;;
7289;SDS011;63176;52.678;13.250;2022-12-07T12:37:03;2.55;;;1.77;;
7289;SDS011;63176;52.678;13.250;2022-12-07T12:42:44;1.33;;;1.25;;
7289;SDS011;63176;52.678;13.250;2022-12-07T12:45:21;3.70;;;1.30;;
7289;SDS011;63176;52.678;13.250;2022-12-07T12:48:50;2.40;;;1.23;;
7289;SDS011;63176;52.678;13.250;2022-12-07T12:54:04;0.93;;;0.90;;
7289;SDS011;63176;52.678;13.250;2022-12-07T12:56:55;1.80;;;1.05;;
7289;SDS011;63176;52.678;13.250;2022-12-07T12:59:57;2.65;;;1.75;;
7289;SDS011;63176;52.678;13.250;2022-12-07T13:12:58;3.58;;;1.40;;
7289;SDS011;63176;52.678;13.250;2022-12-07T13:23:28;0.80;;;0.80;;
7289;SDS011;63176;52.678;13.250;2022-12-07T13:31:48;2.75;;;1.50;;
7289;SDS011;63176;52.678;13.250;2022-12-07T13:37:02;1.83;;;0.82;;
7289;SDS011;63176;52.678;13.250;2022-12-07T13:39:35;1.02;;;0.93;;
7289;SDS011;63176;52.678;13.250;2022-12-07T13:42:30;2.83;;;1.52;;
7289;SDS011;63176;52.678;13.250;2022-12-07T13:44:57;2.72;;;0.85;;
7289;SDS011;63176;52.678;13.250;2022-12-07T13:49:51;8.20;;;4.60;;
7289;SDS011;63176;52.678;13.250;2022-12-07T13:52:23;4.95;;;2.15;;
7289;SDS011;63176;52.678;13.250;2022-12-07T13:54:54;3.05;;;1.00;;
7289;SDS011;63176;52.678;13.250;2022-12-07T13:57:30;4.28;;;1.65;;
7289;SDS011;63176;52.678;13.250;2022-12-07T13:59:59;8.48;;;0.93;;
7289;SDS011;63176;52.678;13.250;2022-12-07T14:02:30;2.88;;;1.42;;
7289;SDS011;63176;52.678;13.250;2022-12-07T14:10:33;5.97;;;1.00;;
7289;SDS011;63176;52.678;13.250;2022-12-07T14:16:01;2.45;;;1.35;;
7289;SDS011;63176;52.678;13.250;2022-12-07T14:18:29;4.55;;;1.20;;
7289;SDS011;63176;52.678;13.250;2022-12-07T14:23:43;3.85;;;1.10;;
7289;SDS011;63176;52.678;13.250;2022-12-07T14:26:18;1.75;;;0.95;;
7289;SDS011;63176;52.678;13.250;2022-12-07T14:28:45;0.95;;;0.80;;
7289;SDS011;63176;52.678;13.250;2022-12-07T14:31:18;5.90;;;0.97;;
7289;SDS011;63176;52.678;13.250;2022-12-07T14:33:49;1.98;;;1.00;;
7289;SDS011;63176;52.678;13.250;2022-12-07T14:36:15;1.00;;;0.67;;
7289;SDS011;63176;52.678;13.250;2022-12-07T14:38:41;2.72;;;0.80;;
7289;SDS011;63176;52.678;13.250;2022-12-07T14:41:10;2.13;;;1.07;;
7289;SDS011;63176;52.678;13.250;2022-12-07T14:43:58;0.73;;;0.73;;
7289;SDS011;63176;52.678;13.250;2022-12-07T14:46:24;1.35;;;1.10;;
7289;SDS011;63176;52.678;13.250;2022-12-07T14:48:50;1.43;;;1.03;;
7289;SDS011;63176;52.678;13.250;2022-12-07T14:51:15;2.53;;;0.87;;
7289;SDS011;63176;52.678;13.250;2022-12-07T14:53:42;0.80;;;0.80;;
7289;SDS011;63176;52.678;13.250;2022-12-07T14:56:11;0.85;;;0.85;;
7289;SDS011;63176;52.678;13.250;2022-12-07T14:58:36;1.33;;;1.00;;
7289;SDS011;63176;52.678;13.250;2022-12-07T15:01:02;2.10;;;0.83;;
7289;SDS011;63176;52.678;13.250;2022-12-07T15:03:28;1.47;;;0.80;;
7289;SDS011;63176;52.678;13.250;2022-12-07T15:05:54;1.77;;;1.23;;
7289;SDS011;63176;52.678;13.250;2022-12-07T15:08:20;3.70;;;0.90;;
7289;SDS011;63176;52.678;13.250;2022-12-07T15:10:45;4.60;;;0.93;;
7289;SDS011;63176;52.678;13.250;2022-12-07T15:13:11;1.80;;;0.90;;
7289;SDS011;63176;52.678;13.250;2022-12-07T15:15:55;0.70;;;0.70;;
7289;SDS011;63176;52.678;13.250;2022-12-07T15:18:21;2.00;;;0.60;;
7289;SDS011;63176;52.678;13.250;2022-12-07T15:20:48;0.90;;;0.90;;
7289;SDS011;63176;52.678;13.250;2022-12-07T15:23:14;3.10;;;1.38;;
7289;SDS011;63176;52.678;13.250;2022-12-07T15:25:40;7.03;;;0.93;;
7289;SDS011;63176;52.678;13.250;2022-12-07T15:28:07;2.92;;;0.85;;
7289;SDS011;63176;52.678;13.250;2022-12-07T15:30:32;1.10;;;0.90;;
7289;SDS011;63176;52.678;13.250;2022-12-07T15:32:58;0.97;;;0.90;;
7289;SDS011;63176;52.678;13.250;2022-12-07T15:35:24;2.53;;;0.97;;
7289;SDS011;63176;52.678;13.250;2022-12-07T15:37:49;3.73;;;1.17;;
7289;SDS011;63176;52.678;13.250;2022-12-07T15:40:15;4.10;;;1.00;;
7289;SDS011;63176;52.678;13.250;2022-12-07T15:42:40;2.20;;;0.87;;
7289;SDS011;63176;52.678;13.250;2022-12-07T15:45:07;2.03;;;0.70;;
7289;SDS011;63176;52.678;13.250;2022-12-07T15:47:41;0.90;;;0.82;;
7289;SDS011;63176;52.678;13.250;2022-12-07T15:50:09;0.52;;;0.50;;
7289;SDS011;63176;52.678;13.250;2022-12-07T15:52:37;0.40;;;0.40;;
7289;SDS011;63176;52.678;13.250;2022-12-07T15:55:03;0.40;;;0.30;;
7289;SDS011;63176;52.678;13.250;2022-12-07T15:57:30;0.57;;;0.57;;
7289;SDS011;63176;52.678;13.250;2022-12-07T15:59:56;4.90;;;0.80;;
7289;SDS011;63176;52.678;13.250;2022-12-07T16:02:22;2.60;;;1.23;;
7289;SDS011;63176;52.678;13.250;2022-12-07T16:04:48;1.67;;;0.90;;
7289;SDS011;63176;52.678;13.250;2022-12-07T16:07:15;3.35;;;0.88;;
7289;SDS011;63176;52.678;13.250;2022-12-07T16:09:42;0.50;;;0.50;;
7289;SDS011;63176;52.678;13.250;2022-12-07T16:12:08;1.80;;;1.00;;
7289;SDS011;63176;52.678;13.250;2022-12-07T16:14:34;2.95;;;2.75;;
7289;SDS011;63176;52.678;13.250;2022-12-07T16:17:00;5.97;;;3.40;;
7289;SDS011;63176;52.678;13.250;2022-12-07T16:19:26;24.77;;;12.20;;
7289;SDS011;63176;52.678;13.250;2022-12-07T16:21:52;19.27;;;9.80;;
7289;SDS011;63176;52.678;13.250;2022-12-07T16:24:18;6.20;;;4.50;;
7289;SDS011;63176;52.678;13.250;2022-12-07T16:26:43;4.77;;;1.43;;
7289;SDS011;63176;52.678;13.250;2022-12-07T16:29:13;2.40;;;2.05;;
7289;SDS011;63176;52.678;13.250;2022-12-07T16:31:38;5.40;;;4.32;;
7289;SDS011;63176;52.678;13.250;2022-12-07T16:34:05;2.45;;;1.80;;
7289;SDS011;63176;52.678;13.250;2022-12-07T16:36:31;2.78;;;1.77;;
7289;SDS011;63176;52.678;13.250;2022-12-07T16:38:57;4.03;;;1.10;;
7289;SDS011;63176;52.678;13.250;2022-12-07T16:41:24;1.23;;;0.77;;
7289;SDS011;63176;52.678;13.250;2022-12-07T16:43:49;4.47;;;1.30;;
7289;SDS011;63176;52.678;13.250;2022-12-07T16:46:15;3.23;;;2.20;;
7289;SDS011;63176;52.678;13.250;2022-12-07T16:48:41;20.48;;;9.05;;
7289;SDS011;63176;52.678;13.250;2022-12-07T16:51:08;28.37;;;10.47;;
7289;SDS011;63176;52.678;13.250;2022-12-07T16:53:36;6.35;;;2.92;;
7289;SDS011;63176;52.678;13.250;2022-12-07T16:56:02;2.92;;;1.85;;
7289;SDS011;63176;52.678;13.250;2022-12-07T16:58:30;2.20;;;1.58;;
7289;SDS011;63176;52.678;13.250;2022-12-07T17:00:56;1.45;;;0.82;;
7289;SDS011;63176;52.678;13.250;2022-12-07T17:03:21;2.47;;;1.27;;
7289;SDS011;63176;52.678;13.250;2022-12-07T17:05:47;1.70;;;1.60;;
7289;SDS011;63176;52.678;13.250;2022-12-07T17:08:14;1.20;;;0.98;;
7289;SDS011;63176;52.678;13.250;2022-12-07T17:10:40;1.90;;;1.48;;
7289;SDS011;63176;52.678;13.250;2022-12-07T17:13:08;9.85;;;4.15;;
7289;SDS011;63176;52.678;13.250;2022-12-07T17:15:55;1.40;;;1.30;;
7289;SDS011;63176;52.678;13.250;2022-12-07T17:18:21;4.70;;;1.45;;
7289;SDS011;63176;52.678;13.250;2022-12-07T17:20:46;2.63;;;1.50;;
7289;SDS011;63176;52.678;13.250;2022-12-07T17:23:12;2.20;;;1.40;;
7289;SDS011;63176;52.678;13.250;2022-12-07T17:25:37;2.00;;;1.50;;
7289;SDS011;63176;52.678;13.250;2022-12-07T17:28:03;1.90;;;1.20;;
7289;SDS011;63176;52.678;13.250;2022-12-07T17:30:29;3.30;;;1.53;;